Time;durP1;ratioP1;P1;durP2;ratioP2;P2;SDS_P1;SDS_P2;PMS_P1;PMS_P2;Temp;Humidity;BMP_temperature;BMP_pressure;BME280_temperature;BME280_humidity;BME280_pressure;Samples;Min_cycle;Max_cycle;Signal;HPM_P1;HPM_P2
2022/03/17 00:01:34;;;;;;;14.00;8.28;;;;;;;-7.21;71.95;101681.45;1785338;80;21220;-82
2022/03/17 00:04:40;;;;;;;15.85;8.28;;;;;;;-7.19;72.14;101686.77;1784253;80;21233;-82
2022/03/17 00:07:48;;;;;;;20.27;9.25;;;;;;;-7.22;72.24;101682.37;1784132;80;21205;-75
2022/03/17 00:10:54;;;;;;;16.23;8.53;;;;;;;-7.26;72.36;101681.55;1785520;80;21158;-83
2022/03/17 00:14:04;;;;;;;14.58;9.08;;;;;;;-7.27;72.48;101683.78;1785686;80;21151;-82
2022/03/17 00:17:09;;;;;;;17.52;9.38;;;;;;;-7.27;72.54;101681.59;1785119;80;21218;-83
2022/03/17 00:20:15;;;;;;;16.52;8.88;;;;;;;-7.32;72.56;101683.00;1785217;80;21157;-83
2022/03/17 00:23:21;;;;;;;17.50;9.15;;;;;;;-7.34;72.66;101675.95;1782393;80;21209;-83
2022/03/17 00:26:27;;;;;;;21.57;9.50;;;;;;;-7.37;72.77;101682.67;1782174;80;21158;-76
2022/03/17 00:29:33;;;;;;;17.80;8.95;;;;;;;-7.40;72.90;101676.95;1782245;80;21743;-83
2022/03/17 00:32:38;;;;;;;19.27;9.38;;;;;;;-7.44;73.06;101682.35;1782315;80;21221;-83
2022/03/17 00:35:43;;;;;;;13.58;8.20;;;;;;;-7.47;73.28;101677.53;1782358;80;21683;-76
2022/03/17 00:38:49;;;;;;;16.10;9.18;;;;;;;-7.48;73.37;101681.10;1782335;80;21201;-76
2022/03/17 00:41:55;;;;;;;14.73;9.45;;;;;;;-7.51;73.54;101682.48;1782291;80;21190;-76
2022/03/17 00:45:02;;;;;;;19.35;10.00;;;;;;;-7.51;73.67;101686.47;1780754;80;21165;-83
2022/03/17 00:48:07;;;;;;;17.87;9.43;;;;;;;-7.52;73.71;101683.39;1781056;80;21756;-76
2022/03/17 00:51:12;;;;;;;18.77;9.08;;;;;;;-7.54;73.84;101684.30;1782322;80;21146;-83
2022/03/17 00:54:19;;;;;;;18.27;9.13;;;;;;;-7.57;74.00;101686.59;1782341;80;21246;-76
2022/03/17 00:57:25;;;;;;;16.48;8.50;;;;;;;-7.62;74.29;101692.44;1781520;80;21340;-76
2022/03/17 01:00:31;;;;;;;21.80;10.03;;;;;;;-7.67;74.67;101686.30;1782403;80;21667;-83
2022/03/17 01:03:38;;;;;;;17.57;10.03;;;;;;;-7.71;74.99;101688.61;1782292;80;21793;-83
2022/03/17 01:06:43;;;;;;;18.48;10.72;;;;;;;-7.75;75.16;101684.25;1781997;80;21218;-76
2022/03/17 01:09:49;;;;;;;16.45;10.13;;;;;;;-7.79;75.41;101683.88;1782200;80;21158;-82
2022/03/17 01:12:55;;;;;;;23.87;10.55;;;;;;;-7.80;75.67;101685.66;1781097;80;21185;-75
2022/03/17 01:16:01;;;;;;;18.92;9.80;;;;;;;-7.80;75.91;101681.67;1780793;80;21165;-82
2022/03/17 01:19:07;;;;;;;22.73;10.70;;;;;;;-7.78;75.99;101691.81;1782117;80;21190;-82
2022/03/17 01:22:13;;;;;;;16.25;9.80;;;;;;;-7.79;76.02;101678.11;1780988;80;21162;-75
2022/03/17 01:25:17;;;;;;;18.90;12.50;;;;;;;-7.79;76.12;101677.23;1785388;80;21205;-75
2022/03/17 01:28:22;;;;;;;17.95;10.20;;;;;;;-7.79;76.16;101677.23;1785232;80;21202;-82
2022/03/17 01:31:29;;;;;;;20.10;9.98;;;;;;;-7.78;76.13;101673.67;1785326;80;21238;-82
2022/03/17 01:34:34;;;;;;;20.72;10.18;;;;;;;-7.79;76.11;101678.56;1785243;80;21237;-81
2022/03/17 01:37:39;;;;;;;21.52;11.12;;;;;;;-7.80;76.08;101679.02;1785272;80;21225;-75
2022/03/17 01:40:45;;;;;;;18.48;10.03;;;;;;;-7.81;76.04;101685.24;1785492;80;21166;-75
2022/03/17 01:43:50;;;;;;;18.35;10.00;;;;;;;-7.86;76.10;101673.79;1785406;80;21138;-82
2022/03/17 01:50:22;;;;;;;26.02;12.45;;;;;;;-7.87;76.23;101669.84;1785311;80;21170;-75
2022/03/17 01:53:29;;;;;;;26.20;12.15;;;;;;;-7.86;76.16;101668.48;1785181;80;21169;-75
2022/03/17 01:56:34;;;;;;;22.37;12.75;;;;;;;-7.87;76.11;101664.53;1785334;80;21193;-75
2022/03/17 01:59:38;;;;;;;23.42;13.20;;;;;;;-7.90;76.22;101661.50;1785494;80;21208;-75
2022/03/17 02:02:37;;;;;;;25.57;14.95;;;;;;;-7.92;76.34;101679.22;1785254;80;21192;-82
2022/03/17 02:05:30;;;;;;;21.42;12.95;;;;;;;-7.93;76.56;101673.94;1785221;80;21186;-82
2022/03/17 02:08:35;;;;;;;28.20;14.18;;;;;;;-7.95;76.67;101670.42;1783848;80;21193;-75
2022/03/17 02:15:12;;;;;;;24.15;14.10;;;;;;;-7.98;76.90;101684.64;1783769;80;21170;-82
2022/03/17 02:18:18;;;;;;;30.65;16.32;;;;;;;-8.01;77.04;101686.01;1785250;80;21196;-82
2022/03/17 02:21:24;;;;;;;27.27;14.30;;;;;;;-8.03;77.19;101678.08;1785230;80;21155;-82
2022/03/17 02:27:53;;;;;;;24.15;13.85;;;;;;;-8.08;77.38;101682.59;1785235;80;21766;-82
2022/03/17 02:30:58;;;;;;;30.12;15.65;;;;;;;-8.08;77.46;101683.92;1785275;80;21150;-82
2022/03/17 02:34:04;;;;;;;24.82;14.73;;;;;;;-8.10;77.61;101680.39;1783618;80;21178;-75
2022/03/17 02:37:08;;;;;;;31.02;14.93;;;;;;;-8.10;77.70;101680.39;1785232;80;21204;-75
2022/03/17 02:40:17;;;;;;;30.45;14.10;;;;;;;-8.11;77.82;101679.97;1785242;80;21182;-82
2022/03/17 02:43:24;;;;;;;20.48;13.15;;;;;;;-8.12;77.96;101685.31;1785324;80;21225;-75
2022/03/17 02:46:29;;;;;;;25.90;14.58;;;;;;;-8.15;78.04;101677.39;1785165;80;21202;-75
2022/03/17 02:49:37;;;;;;;27.77;15.83;;;;;;;-8.18;78.25;101678.34;1784001;80;21675;-75
2022/03/17 02:52:43;;;;;;;24.72;15.15;;;;;;;-8.19;78.58;101688.50;1784099;80;21806;-75
2022/03/17 02:55:50;;;;;;;26.55;14.13;;;;;;;-8.22;78.89;101685.92;1785356;80;21158;-83
2022/03/17 02:58:56;;;;;;;22.27;13.48;;;;;;;-8.24;79.20;101685.05;1785513;80;21150;-83
2022/03/17 03:02:04;;;;;;;29.12;15.05;;;;;;;-8.23;79.39;101693.46;1785342;80;21201;-83
2022/03/17 03:05:05;;;;;;;28.83;13.62;;;;;;;-8.23;79.48;101689.48;1785373;80;21197;-83
2022/03/17 03:08:12;;;;;;;25.60;14.07;;;;;;;-8.22;79.60;101685.05;1784034;80;21774;-76
2022/03/17 03:11:17;;;;;;;32.40;14.95;;;;;;;-8.22;79.61;101688.57;1785426;80;21743;-76
2022/03/17 03:14:23;;;;;;;24.43;13.48;;;;;;;-8.20;79.52;101684.10;1785420;80;21197;-76
2022/03/17 03:17:29;;;;;;;27.10;14.98;;;;;;;-8.20;79.46;101676.59;1785368;80;21197;-76
2022/03/17 03:20:35;;;;;;;27.98;16.12;;;;;;;-8.20;79.38;101685.43;1785371;80;21206;-76
2022/03/17 03:23:41;;;;;;;25.57;13.75;;;;;;;-8.21;79.28;101675.72;1785632;80;21205;-83
2022/03/17 03:26:48;;;;;;;24.52;13.75;;;;;;;-8.21;79.27;101680.16;1782414;80;21197;-83
2022/03/17 03:29:53;;;;;;;22.05;12.55;;;;;;;-8.25;79.24;101682.84;1782487;80;21720;-76
2022/03/17 03:32:53;;;;;;;20.30;10.68;;;;;;;-8.28;79.27;101683.34;1782461;80;21715;-76
2022/03/17 03:39:24;;;;;;;26.00;14.75;;;;;;;-8.39;79.43;101682.67;1781658;80;21978;-83
2022/03/17 03:42:31;;;;;;;34.48;14.87;;;;;;;-8.45;79.56;101677.01;1781432;80;21205;-83
2022/03/17 03:45:38;;;;;;;26.12;13.32;;;;;;;-8.47;79.66;101682.77;1782191;80;21711;-83
2022/03/17 03:48:45;;;;;;;34.67;16.02;;;;;;;-8.52;79.85;101688.14;1782166;80;21154;-83
2022/03/17 03:51:51;;;;;;;26.17;14.30;;;;;;;-8.54;80.12;101689.08;1780928;80;21856;-76
2022/03/17 03:54:57;;;;;;;27.95;15.25;;;;;;;-8.56;80.18;101685.14;1782190;80;21150;-82
2022/03/17 03:58:03;;;;;;;30.62;13.22;;;;;;;-8.55;80.30;101686.01;1781020;80;21818;-82
2022/03/17 04:01:09;;;;;;;35.15;15.20;;;;;;;-8.54;80.39;101701.02;1780744;80;21162;-76
2022/03/17 04:04:20;;;;;;;28.17;15.18;;;;;;;-8.57;80.45;101691.31;1780986;80;21165;-82
2022/03/17 04:07:26;;;;;;;36.30;16.42;;;;;;;-8.57;80.58;101699.27;1781824;80;21202;-83
2022/03/17 04:10:25;;;;;;;38.80;18.35;;;;;;;-8.56;80.61;101700.14;1781403;80;21186;-82
2022/03/17 04:13:31;;;;;;;29.15;15.38;;;;;;;-8.54;80.69;101707.66;1782429;80;21158;-82
2022/03/17 04:16:38;;;;;;;29.35;15.48;;;;;;;-8.52;80.75;101708.05;1780830;80;21743;-75
2022/03/17 04:19:44;;;;;;;39.92;18.32;;;;;;;-8.49;80.83;101709.80;1780884;80;21205;-75
2022/03/17 04:22:50;;;;;;;35.52;16.55;;;;;;;-8.47;80.90;101709.76;1782356;80;21205;-82
2022/03/17 04:25:57;;;;;;;28.12;15.05;;;;;;;-8.42;81.01;101710.56;1780571;80;21190;-75
2022/03/17 04:29:02;;;;;;;30.20;15.48;;;;;;;-8.35;81.11;101718.85;1782565;80;21185;-75
2022/03/17 04:32:09;;;;;;;38.15;16.10;;;;;;;-8.30;81.11;101717.00;1782583;80;21197;-74
2022/03/17 04:35:15;;;;;;;25.00;13.28;;;;;;;-8.23;81.14;101714.70;1782638;80;21201;-82
2022/03/17 04:38:22;;;;;;;34.80;17.12;;;;;;;-8.15;81.11;101725.18;1782644;80;21214;-81
2022/03/17 04:41:28;;;;;;;33.73;17.02;;;;;;;-8.09;81.01;101731.72;1782479;80;21202;-82
2022/03/17 04:44:35;;;;;;;34.60;15.75;;;;;;;-8.01;80.91;101720.08;1781041;80;21213;-81
2022/03/17 04:47:41;;;;;;;27.93;15.72;;;;;;;-7.92;80.85;101719.06;1781557;80;21217;-75
2022/03/17 04:50:49;;;;;;;27.35;15.60;;;;;;;-7.83;80.69;101724.22;1781091;80;21194;-82
2022/03/17 04:53:55;;;;;;;23.70;14.28;;;;;;;-7.74;80.55;101720.54;1781673;80;21810;-82
2022/03/17 04:57:02;;;;;;;23.45;14.03;;;;;;;-7.60;80.38;101726.48;1780956;80;21798;-82
2022/03/17 05:00:08;;;;;;;32.35;14.43;;;;;;;-7.50;80.25;101734.72;1780968;80;21173;-82
2022/03/17 05:03:14;;;;;;;29.82;16.02;;;;;;;-7.41;79.60;101728.37;1781260;80;21191;-75
2022/03/17 05:06:22;;;;;;;28.90;15.32;;;;;;;-7.32;79.63;101726.00;1782457;80;21146;-75
2022/03/17 05:09:27;;;;;;;27.77;13.22;;;;;;;-7.23;79.31;101736.46;1781553;80;21226;-81
2022/03/17 05:12:34;;;;;;;26.40;14.07;;;;;;;-7.14;78.60;101742.06;1781599;80;21726;-82
2022/03/17 05:15:40;;;;;;;27.05;14.83;;;;;;;-7.09;78.43;101738.41;1782378;80;21173;-82
2022/03/17 05:18:47;;;;;;;38.05;16.23;;;;;;;-7.00;77.71;101745.33;1782417;80;21821;-82
2022/03/17 05:21:52;;;;;;;22.90;13.90;;;;;;;-6.95;76.97;101744.78;1781208;80;21233;-82
2022/03/17 05:24:59;;;;;;;27.52;14.63;;;;;;;-6.91;76.85;101750.93;1781508;80;21177;-82
2022/03/17 05:28:04;;;;;;;31.07;15.23;;;;;;;-6.89;76.21;101762.41;1779843;80;21722;-75
2022/03/17 05:31:10;;;;;;;24.57;13.72;;;;;;;-6.84;76.23;101760.53;1781863;80;21190;-82
2022/03/17 05:34:18;;;;;;;31.33;14.70;;;;;;;-6.77;76.07;101763.50;1782432;80;21162;-75
2022/03/17 05:37:24;;;;;;;25.75;13.30;;;;;;;-6.70;75.49;101768.65;1781685;80;21194;-76
2022/03/17 05:40:30;;;;;;;26.62;14.68;;;;;;;-6.65;75.25;101764.56;1781165;80;21245;-82
2022/03/17 05:43:36;;;;;;;24.20;13.65;;;;;;;-6.61;75.46;101774.24;1782256;80;21699;-82
2022/03/17 05:46:42;;;;;;;31.87;14.87;;;;;;;-6.56;74.76;101776.81;1781904;80;21202;-82
2022/03/17 05:49:49;;;;;;;22.42;12.70;;;;;;;-6.53;74.22;101782.95;1782291;80;21162;-76
2022/03/17 05:52:55;;;;;;;23.92;13.22;;;;;;;-6.42;73.97;101776.52;1781087;80;21198;-82
2022/03/17 05:56:01;;;;;;;24.70;13.55;;;;;;;-6.37;73.93;101758.20;1782120;80;21190;-75
2022/03/17 05:59:07;;;;;;;27.42;15.00;;;;;;;-6.31;73.17;101761.17;1782333;80;21711;-75
2022/03/17 06:02:13;;;;;;;22.27;13.28;;;;;;;-6.21;73.48;101765.37;1781544;80;21237;-82
2022/03/17 06:05:18;;;;;;;28.62;11.40;;;;;;;-6.09;73.12;101773.56;1775654;80;21149;-82
2022/03/17 06:08:23;;;;;;;22.67;11.73;;;;;;;-6.00;71.96;101770.23;1760728;81;21196;-82
2022/03/17 06:11:29;;;;;;;79.30;38.98;;;;;;;-5.93;71.51;101768.28;1760798;81;21184;-75
2022/03/17 06:14:35;;;;;;;31.57;13.05;;;;;;;-5.85;71.30;101769.41;1760078;81;21746;-82
2022/03/17 06:17:49;;;;;;;23.92;11.53;;;;;;;-5.76;71.23;101770.53;1778045;80;21196;-83
2022/03/17 06:20:55;;;;;;;18.50;10.23;;;;;;;-5.61;70.91;101774.14;1780513;80;21180;-76
2022/03/17 06:24:02;;;;;;;22.48;11.60;;;;;;;-5.46;70.26;101779.12;1780366;80;21137;-83
2022/03/17 06:27:07;;;;;;;18.20;9.55;;;;;;;-5.38;68.99;101756.23;1781281;80;21153;-83
2022/03/17 06:30:13;;;;;;;20.35;10.10;;;;;;;-5.33;68.96;101760.12;1783186;80;21171;-75
2022/03/17 06:33:20;;;;;;;20.08;10.45;;;;;;;-5.27;69.36;101780.86;1779554;78;21167;-76
2022/03/17 06:36:26;;;;;;;19.60;9.13;;;;;;;-5.19;68.98;101777.97;1762710;81;21752;-83
2022/03/17 06:39:32;;;;;;;20.60;10.82;;;;;;;-5.14;67.81;101765.37;1763014;81;21705;-83
2022/03/17 06:42:37;;;;;;;14.70;9.28;;;;;;;-5.10;68.56;101773.73;1762089;81;21187;-83
2022/03/17 06:45:45;;;;;;;26.12;9.23;;;;;;;-5.01;68.34;101764.14;1778195;80;21121;-83
2022/03/17 06:48:51;;;;;;;25.57;8.75;;;;;;;-4.84;68.22;101754.80;1784525;80;21191;-84
2022/03/17 06:51:58;;;;;;;12.65;8.25;;;;;;;-4.70;67.14;101780.19;1793177;80;21199;-83
2022/03/17 06:55:05;;;;;;;19.27;8.65;;;;;;;-4.68;65.63;101755.64;1782060;80;21191;-83
2022/03/17 06:58:10;;;;;;;14.85;8.30;;;;;;;-4.65;65.59;101762.70;1782266;80;21737;-83
2022/03/17 07:01:15;;;;;;;15.93;7.92;;;;;;;-4.57;66.51;101767.80;1782369;80;21293;-84
2022/03/17 07:04:21;;;;;;;15.43;8.53;;;;;;;-4.49;66.73;101752.44;1785921;80;21164;-76
2022/03/17 07:07:27;;;;;;;14.07;8.30;;;;;;;-4.37;65.41;101755.63;1787249;80;21243;-84
2022/03/17 07:10:34;;;;;;;14.87;8.23;;;;;;;-4.29;65.10;101747.36;1787249;80;21726;-75
2022/03/17 07:13:39;;;;;;;12.73;7.58;;;;;;;-4.25;63.59;101743.67;1785949;80;21781;-76
2022/03/17 07:16:45;;;;;;;26.42;8.08;;;;;;;-4.20;64.86;101742.20;1784669;80;21180;-75
2022/03/17 07:19:59;;;;;;;20.52;8.08;;;;;;;-4.13;63.16;101735.76;1781741;80;21164;-84
2022/03/17 07:23:06;;;;;;;29.77;8.13;;;;;;;-4.08;63.08;101748.98;1775722;80;21172;-76
2022/03/17 07:26:11;;;;;;;22.22;7.70;;;;;;;-4.05;61.84;101745.72;1780593;79;21773;-84
2022/03/17 07:29:16;;;;;;;16.35;8.15;;;;;;;-4.02;62.58;101736.28;1750330;81;21172;-83
2022/03/17 07:32:14;;;;;;;13.50;8.03;;;;;;;-3.93;62.19;101740.46;1758929;81;21244;-75
2022/03/17 07:35:07;;;;;;;13.90;7.75;;;;;;;-3.82;60.93;101749.47;1729855;81;21163;-84
2022/03/17 07:37:54;;;;;;;12.70;6.58;;;;;;;-3.80;61.09;101739.15;1728658;83;21196;-76
2022/03/17 07:40:48;;;;;;;16.20;8.38;;;;;;;-3.75;60.41;101733.66;1730107;81;21797;-76
2022/03/17 07:43:33;;;;;;;14.47;8.55;;;;;;;-3.72;61.00;101750.44;1749894;81;21711;-75
2022/03/17 07:46:27;;;;;;;28.83;8.03;;;;;;;-3.70;60.49;101735.70;1756042;81;21196;-76
2022/03/17 07:49:39;;;;;;;20.17;7.50;;;;;;;-3.64;60.60;101743.52;1736456;81;21137;-75
2022/03/17 07:52:45;;;;;;;11.60;7.30;;;;;;;-3.55;59.98;101763.27;1728370;83;21235;-84
2022/03/17 07:55:54;;;;;;;15.85;7.90;;;;;;;-3.55;59.69;101749.90;1741058;81;21224;-76
2022/03/17 07:58:59;;;;;;;14.45;8.03;;;;;;;-3.50;60.21;101739.92;1731559;81;21236;-83
2022/03/17 08:02:04;;;;;;;18.50;7.83;;;;;;;-3.37;59.29;101745.27;1742161;82;21290;-76
2022/03/17 08:05:10;;;;;;;17.23;7.78;;;;;;;-3.21;59.68;101756.77;1760226;78;21793;-76
2022/03/17 08:08:09;;;;;;;12.78;7.58;;;;;;;-3.13;58.17;101748.02;1730721;81;21223;-84
2022/03/17 08:11:01;;;;;;;18.40;8.08;;;;;;;-3.10;57.69;101751.94;1735027;81;21167;-75
2022/03/17 08:13:47;;;;;;;13.85;7.90;;;;;;;-3.06;57.97;101737.48;1720765;83;21208;-83
2022/03/17 08:16:39;;;;;;;19.75;8.15;;;;;;;-3.05;56.59;101733.91;1761854;81;21263;-75
2022/03/17 08:19:26;;;;;;;13.48;7.25;;;;;;;-3.07;56.32;101738.89;1757233;80;21180;-76
2022/03/17 08:22:18;;;;;;;12.20;7.20;;;;;;;-3.13;55.89;101736.84;1762120;81;21227;-75
2022/03/17 08:25:25;;;;;;;12.90;6.78;;;;;;;-3.19;57.04;101730.84;1761195;81;21147;-83
2022/03/17 08:28:30;;;;;;;12.05;6.70;;;;;;;-3.18;57.18;101717.87;1744616;81;21570;-75
2022/03/17 08:31:36;;;;;;;13.15;7.90;;;;;;;-3.18;57.15;101733.45;1741673;81;21720;-83
2022/03/17 08:34:41;;;;;;;13.80;8.15;;;;;;;-3.10;56.57;101731.86;1756663;80;21249;-75
2022/03/17 08:37:48;;;;;;;14.60;7.58;;;;;;;-3.07;56.12;101726.38;1784291;80;21237;-83
2022/03/17 08:40:56;;;;;;;11.50;7.40;;;;;;;-2.97;56.84;101719.75;1768941;80;21670;-75
2022/03/17 08:44:03;;;;;;;11.10;7.03;;;;;;;-2.83;57.14;101718.78;1785426;80;21180;-76
2022/03/17 08:50:35;;;;;;;10.55;6.30;;;;;;;-2.53;55.32;101712.36;1784636;80;21698;-82
2022/03/17 08:53:40;;;;;;;16.35;7.58;;;;;;;-2.49;54.84;101724.67;1775365;80;21216;-82
2022/03/17 08:56:47;;;;;;;13.65;7.47;;;;;;;-2.52;54.72;101718.98;1783748;80;21227;-76
2022/03/17 08:59:53;;;;;;;16.25;7.08;;;;;;;-2.50;54.34;101711.75;1754298;80;21716;-82
2022/03/17 09:03:01;;;;;;;21.17;6.47;;;;;;;-2.45;54.71;101719.14;1763502;80;21165;-76
2022/03/17 09:06:07;;;;;;;14.93;7.65;;;;;;;-2.45;54.10;101705.75;1784498;80;21164;-75
2022/03/17 09:09:12;;;;;;;18.55;7.78;;;;;;;-2.46;54.38;101689.27;1784736;80;21730;-76
2022/03/17 09:12:18;;;;;;;17.92;7.40;;;;;;;-2.36;54.33;101692.46;1784382;80;21200;-82
2022/03/17 09:15:24;;;;;;;20.23;7.42;;;;;;;-2.35;53.70;101712.52;1783217;80;21203;-76
2022/03/17 09:18:31;;;;;;;11.45;6.50;;;;;;;-2.29;53.48;101692.64;1785162;80;21157;-76
2022/03/17 09:21:37;;;;;;;17.20;7.60;;;;;;;-2.23;53.79;101704.92;1780283;80;21763;-83
2022/03/17 09:24:46;;;;;;;14.03;7.45;;;;;;;-2.11;53.99;101684.34;1784483;80;21165;-75
2022/03/17 09:27:50;;;;;;;12.03;6.35;;;;;;;-2.01;54.20;101695.09;1774905;80;21710;-82
2022/03/17 09:30:58;;;;;;;19.55;8.00;;;;;;;-1.90;53.29;101694.17;1730852;81;21226;-75
2022/03/17 09:34:04;;;;;;;12.33;7.25;;;;;;;-1.84;52.73;101689.89;1789526;79;21190;-82
2022/03/17 09:37:11;;;;;;;13.83;6.03;;;;;;;-1.73;52.23;101693.95;1789133;79;21196;-82
2022/03/17 09:40:16;;;;;;;12.58;7.20;;;;;;;-1.67;51.14;101691.01;1761180;80;21157;-75
2022/03/17 09:43:22;;;;;;;23.70;7.97;;;;;;;-1.59;51.22;101676.34;1752841;82;21187;-82
2022/03/17 09:46:28;;;;;;;15.30;7.28;;;;;;;-1.48;50.18;101708.55;1752775;82;21208;-75
2022/03/17 09:49:36;;;;;;;17.67;6.90;;;;;;;-1.48;49.64;101685.26;1767192;80;21200;-82
2022/03/17 09:52:42;;;;;;;10.70;6.15;;;;;;;-1.45;49.81;101693.19;1757797;80;21149;-75
2022/03/17 09:55:48;;;;;;;21.93;6.25;;;;;;;-1.46;50.98;101679.34;1757360;80;21758;-82
2022/03/17 09:58:53;;;;;;;20.52;6.40;;;;;;;-1.32;50.20;101693.07;1731908;83;21539;-82
2022/03/17 10:02:05;;;;;;;11.88;5.92;;;;;;;-1.19;49.41;101724.73;1739986;82;21192;-76
2022/03/17 10:05:11;;;;;;;8.10;5.80;;;;;;;-1.17;48.56;101667.83;1715815;83;21450;-82
2022/03/17 10:08:11;;;;;;;15.00;6.20;;;;;;;-1.22;50.35;101659.08;1751622;81;21188;-82
2022/03/17 10:11:17;;;;;;;11.57;7.10;;;;;;;-1.22;50.35;101659.08;1744872;81;21760;-82
2022/03/17 10:14:23;;;;;;;10.28;6.35;;;;;;;-1.03;50.24;101676.14;1729294;81;21171;-82
2022/03/17 10:17:47;;;;;;;11.05;5.55;;;;;;;-0.92;48.51;101675.17;1725900;83;21540;-75
2022/03/17 10:20:54;;;;;;;15.53;5.97;;;;;;;-0.96;49.26;101678.06;1762334;81;21378;-75
2022/03/17 10:24:04;;;;;;;21.42;5.60;;;;;;;-0.93;48.97;101682.84;1760635;81;21169;-82
2022/03/17 10:27:10;;;;;;;16.40;6.92;;;;;;;-0.86;49.63;101692.34;1760479;81;21835;-82
2022/03/17 10:30:17;;;;;;;10.90;6.15;;;;;;;-0.79;48.25;101707.26;1776265;80;21208;-82
2022/03/17 10:33:28;;;;;;;10.53;6.42;;;;;;;-0.86;48.72;101679.39;1780049;80;21324;-75
2022/03/17 10:36:34;;;;;;;13.43;6.42;;;;;;;-0.85;49.69;101679.34;1787474;80;21232;-75
2022/03/17 10:39:49;;;;;;;10.95;6.83;;;;;;;-0.72;48.86;101670.22;1756533;80;21165;-75
2022/03/17 10:42:54;;;;;;;10.10;6.30;;;;;;;-0.61;48.19;101680.46;1783047;80;21636;-75
2022/03/17 10:46:23;;;;;;;13.78;6.30;;;;;;;-0.62;48.02;101670.19;1783288;80;21172;-75
2022/03/17 10:49:27;;;;;;;14.78;6.53;;;;;;;-0.70;48.62;101666.14;1783495;80;21801;-76
2022/03/17 10:52:34;;;;;;;10.03;6.42;;;;;;;-0.72;49.10;101672.04;1782752;80;21263;-82
2022/03/17 10:55:41;;;;;;;12.18;6.20;;;;;;;-0.63;49.38;101670.27;1776919;80;21200;-82
2022/03/17 10:58:51;;;;;;;16.35;7.50;;;;;;;-0.71;48.51;101665.23;1786203;80;21208;-82
2022/03/17 11:02:03;;;;;;;14.15;6.70;;;;;;;-0.85;49.56;101655.16;1785326;80;21224;-75
2022/03/17 11:05:10;;;;;;;10.93;6.37;;;;;;;-0.79;50.39;101676.84;1786712;80;21156;-83
2022/03/17 11:08:15;;;;;;;14.80;7.62;;;;;;;-0.66;49.35;101675.78;1786617;80;21208;-82
2022/03/17 11:11:22;;;;;;;19.27;6.75;;;;;;;-0.55;48.70;101657.35;1786592;80;21207;-82
2022/03/17 11:14:31;;;;;;;19.15;6.70;;;;;;;-0.60;48.32;101662.08;1787626;80;21188;-82
2022/03/17 11:17:46;;;;;;;10.40;7.10;;;;;;;-0.65;48.45;101661.42;1787275;80;21219;-83
2022/03/17 11:20:52;;;;;;;16.70;8.03;;;;;;;-0.71;47.93;101674.64;1764495;80;21149;-75
2022/03/17 11:24:08;;;;;;;12.30;7.87;;;;;;;-0.87;48.19;101661.53;1787903;80;21153;-75
2022/03/17 11:27:17;;;;;;;20.75;10.28;;;;;;;-0.85;48.59;101664.56;1786845;80;21305;-82
2022/03/17 11:30:22;;;;;;;30.52;15.60;;;;;;;-0.81;48.82;101667.48;1787410;80;21208;-75
2022/03/17 11:33:48;;;;;;;27.42;12.03;;;;;;;-0.83;49.02;101673.89;1782144;80;21204;-82
2022/03/17 11:37:34;;;;;;;18.27;7.95;;;;;;;-0.80;48.86;101672.38;1768770;81;21798;-75
2022/03/17 11:40:39;;;;;;;13.28;7.35;;;;;;;-0.74;49.14;101668.09;1752488;81;21782;-75
2022/03/17 11:44:00;;;;;;;15.53;7.78;;;;;;;-0.79;49.07;101674.16;1768148;81;22172;-82
2022/03/17 11:47:06;;;;;;;12.30;6.78;;;;;;;-0.86;49.41;101669.51;1768956;81;21236;-82
2022/03/17 11:50:36;;;;;;;12.00;5.58;;;;;;;-0.92;49.50;101670.27;1769734;81;21691;-82
2022/03/17 11:53:50;;;;;;;12.10;5.97;;;;;;;-1.01;50.07;101670.21;1770919;81;21169;-75
2022/03/17 11:57:10;;;;;;;9.85;5.17;;;;;;;-0.92;50.42;101652.34;1770326;81;21184;-75
2022/03/17 12:00:20;;;;;;;8.03;5.00;;;;;;;-0.81;49.74;101661.23;1769319;81;21281;-82
2022/03/17 12:03:20;;;;;;;9.88;5.05;;;;;;;-0.83;48.97;101666.69;1738283;81;21220;-75
2022/03/17 12:06:35;;;;;;;9.95;5.03;;;;;;;-0.99;48.58;101669.66;1770151;81;21193;-75
2022/03/17 12:09:41;;;;;;;11.03;5.72;;;;;;;-1.11;49.81;101682.31;1770129;81;21146;-75
2022/03/17 12:12:47;;;;;;;8.20;4.83;;;;;;;-1.22;48.72;101669.81;1768761;81;21213;-82
2022/03/17 12:15:52;;;;;;;8.95;5.20;;;;;;;-1.30;49.59;101672.39;1766393;80;21152;-83
2022/03/17 12:19:10;;;;;;;11.63;5.20;;;;;;;-1.34;49.81;101673.45;1745316;82;21171;-82
2022/03/17 12:22:27;;;;;;;16.52;4.85;;;;;;;-1.32;50.48;101676.97;1746819;82;21757;-83
2022/03/17 12:25:32;;;;;;;13.38;7.35;;;;;;;-1.19;49.81;101681.77;1747159;82;21152;-82
2022/03/17 12:28:38;;;;;;;92.40;32.20;;;;;;;-1.04;50.32;101675.23;1747243;82;21753;-76
2022/03/17 12:31:44;;;;;;;9.68;5.17;;;;;;;-0.92;50.47;101677.86;1749273;80;21204;-76
2022/03/17 12:34:56;;;;;;;55.73;16.17;;;;;;;-1.00;49.01;101679.14;1749331;81;21252;-74
2022/03/17 12:38:12;;;;;;;21.00;6.92;;;;;;;-1.11;49.13;101675.60;1750988;82;21685;-76
2022/03/17 12:41:21;;;;;;;14.13;6.20;;;;;;;-1.02;49.51;101667.13;1750486;82;21704;-75
2022/03/17 12:44:32;;;;;;;13.30;5.47;;;;;;;-0.96;49.70;101689.67;1750850;82;21161;-82
2022/03/17 12:47:34;;;;;;;205.05;62.05;;;;;;;-1.04;49.25;101695.85;1750386;80;21176;-82
2022/03/17 12:50:39;;;;;;;545.85;174.00;;;;;;;-1.13;50.61;101689.55;1750573;82;21161;-82
2022/03/17 12:53:47;;;;;;;30.17;16.12;;;;;;;-1.14;51.55;101683.78;1750521;82;21168;-82
2022/03/17 12:56:58;;;;;;;13.00;6.95;;;;;;;-1.06;50.74;101687.01;1731477;82;21176;-82
2022/03/17 13:00:05;;;;;;;19.30;6.85;;;;;;;-1.17;51.31;101690.66;1750311;82;21157;-75
2022/03/17 13:03:11;;;;;;;12.35;6.00;;;;;;;-1.32;52.16;101682.33;1750406;82;21734;-75
2022/03/17 13:09:40;;;;;;;15.83;7.87;;;;;;;-1.52;52.27;101676.94;1750382;82;21673;-75
2022/03/17 13:16:11;;;;;;;16.42;7.92;;;;;;;-1.40;53.72;101693.86;1757407;80;21278;-82
2022/03/17 13:19:17;;;;;;;14.30;8.25;;;;;;;-1.45;53.58;101687.82;1770081;81;21751;-75
2022/03/17 13:22:34;;;;;;;15.40;6.50;;;;;;;-1.63;53.68;101703.36;1770136;81;21209;-76
2022/03/17 13:25:41;;;;;;;14.40;6.33;;;;;;;-1.76;52.68;101698.97;1738416;82;21171;-82
2022/03/17 13:28:48;;;;;;;11.67;5.07;;;;;;;-1.67;51.52;101689.20;1749302;82;21156;-76
2022/03/17 13:31:53;;;;;;;10.45;6.12;;;;;;;-1.53;52.42;101693.98;1749138;82;21589;-83
2022/03/17 13:35:06;;;;;;;19.62;7.55;;;;;;;-1.51;52.46;101704.64;1749090;82;21163;-77
2022/03/17 13:38:18;;;;;;;11.30;6.50;;;;;;;-1.50;52.37;101697.88;1748462;82;21204;-75
2022/03/17 13:41:29;;;;;;;11.88;5.85;;;;;;;-1.58;51.58;101706.72;1732302;83;21231;-82
2022/03/17 13:44:55;;;;;;;;;;;;;;;-1.56;52.71;101715.09;1734851;83;21168;-75
2022/03/17 13:48:09;;;;;;;9.05;6.22;;;;;;;-1.58;52.89;101716.11;1731397;83;20179;-82
2022/03/17 13:51:14;;;;;;;11.15;5.85;;;;;;;-1.64;53.33;101728.45;1732837;83;21176;-82
2022/03/17 13:54:22;;;;;;;12.30;6.58;;;;;;;-1.71;53.38;101714.41;1739880;81;21157;-76
2022/03/17 13:57:29;;;;;;;11.83;5.62;;;;;;;-1.73;54.56;101732.86;1752525;82;21208;-76
2022/03/17 14:00:35;;;;;;;8.45;5.45;;;;;;;-1.86;53.29;101729.80;1765298;81;21161;-83
2022/03/17 14:03:43;;;;;;;9.70;5.37;;;;;;;-2.00;53.31;101733.50;1697585;82;21212;-82
2022/03/17 14:06:49;;;;;;;13.15;6.30;;;;;;;-2.05;53.45;101741.73;1766002;81;21205;-82
2022/03/17 14:09:55;;;;;;;9.90;5.83;;;;;;;-2.05;53.74;101739.05;1754045;81;21197;-75
2022/03/17 14:13:12;;;;;;;11.60;6.15;;;;;;;-2.07;53.88;101758.33;1771517;81;21798;-76
2022/03/17 14:16:18;;;;;;;15.55;6.55;;;;;;;-2.09;54.67;101749.48;1771210;81;21201;-75
2022/03/17 14:19:25;;;;;;;9.73;5.95;;;;;;;-2.13;55.46;101753.21;1772502;81;21224;-82
2022/03/17 14:25:53;;;;;;;13.00;7.08;;;;;;;-2.37;56.02;101748.34;1772485;81;21192;-83
2022/03/17 14:29:00;;;;;;;14.68;7.03;;;;;;;-2.43;55.77;101751.27;1771128;81;21160;-82
2022/03/17 14:32:06;;;;;;;16.23;6.53;;;;;;;-2.45;56.19;101762.48;1772015;81;21205;-76
2022/03/17 14:35:12;;;;;;;14.18;6.40;;;;;;;-2.42;56.93;101769.95;1756868;81;21203;-77
2022/03/17 14:38:17;;;;;;;16.35;6.33;;;;;;;-2.46;58.40;101776.35;1779944;80;21198;-76
2022/03/17 14:41:23;;;;;;;11.50;6.50;;;;;;;-2.59;58.30;101769.27;1782685;80;21828;-76